createdAt,value
2017-11-08T00:02:03.609Z,65.20
2017-11-08T00:04:32.381Z,64.60
2017-11-08T00:07:01.174Z,64.70
2017-11-08T00:09:30.405Z,64.70
2017-11-08T00:11:58.898Z,64.70
2017-11-08T00:14:26.895Z,64.70
2017-11-08T00:16:55.028Z,64.60
2017-11-08T00:19:22.984Z,64.60
2017-11-08T00:21:53.712Z,64.80
2017-11-08T00:24:34.171Z,64.80
2017-11-08T00:27:02.999Z,64.80
2017-11-08T00:29:30.986Z,64.80
2017-11-08T00:31:58.971Z,64.70
2017-11-08T00:34:26.882Z,64.70
2017-11-08T00:36:54.877Z,64.70
2017-11-08T00:39:22.935Z,64.70
2017-11-08T00:41:50.970Z,64.70
2017-11-08T00:44:19.766Z,64.70
2017-11-08T00:46:48.587Z,64.80
2017-11-08T00:49:16.616Z,64.80
2017-11-08T00:51:45.414Z,64.90
2017-11-08T00:54:14.171Z,65.00
2017-11-08T00:56:42.143Z,65.00
2017-11-08T00:59:10.142Z,65.00
2017-11-08T01:01:38.979Z,64.90
2017-11-08T01:04:06.945Z,64.90
2017-11-08T01:06:34.838Z,64.90
2017-11-08T01:09:02.716Z,65.00
2017-11-08T01:11:30.642Z,65.10
2017-11-08T01:13:58.488Z,64.90
2017-11-08T01:16:26.484Z,64.90
2017-11-08T01:18:54.474Z,65.00
2017-11-08T01:21:22.341Z,65.10
2017-11-08T01:23:50.188Z,65.10
2017-11-08T01:26:18.120Z,65.10
2017-11-08T01:28:46.843Z,65.10
2017-11-08T01:31:14.777Z,65.10
2017-11-08T01:33:45.256Z,65.10
2017-11-08T01:36:13.188Z,65.10
2017-11-08T01:38:42.798Z,65.10
2017-11-08T01:41:16.255Z,65.00
2017-11-08T01:43:44.200Z,64.90
2017-11-08T01:46:17.000Z,64.90
2017-11-08T01:48:44.960Z,64.90
2017-11-08T01:51:13.726Z,64.90
2017-11-08T01:53:41.583Z,64.80
2017-11-08T01:56:09.500Z,64.90
2017-11-08T01:58:37.466Z,64.80
2017-11-08T02:01:05.384Z,64.90
2017-11-08T02:03:33.262Z,64.90
2017-11-08T02:06:01.172Z,64.90
2017-11-08T02:08:29.135Z,64.90
2017-11-08T02:10:57.055Z,64.90
2017-11-08T02:13:24.915Z,65.00
2017-11-08T02:15:52.810Z,65.00
2017-11-08T02:18:22.494Z,65.00
2017-11-08T02:20:50.483Z,64.90
2017-11-08T02:23:18.472Z,65.00
2017-11-08T02:25:46.470Z,64.90
2017-11-08T02:28:18.076Z,65.00
2017-11-08T02:30:46.103Z,65.00
2017-11-08T02:33:14.834Z,65.00
2017-11-08T02:35:43.009Z,65.00
2017-11-08T02:38:10.907Z,64.90
2017-11-08T02:40:38.787Z,65.00
2017-11-08T02:43:09.619Z,65.10
2017-11-08T02:45:52.061Z,65.10
2017-11-08T02:48:19.964Z,65.10
2017-11-08T02:50:47.833Z,65.00
2017-11-08T02:53:21.711Z,65.00
2017-11-08T02:55:49.652Z,65.00
2017-11-08T02:58:18.300Z,65.00
2017-11-08T03:00:47.129Z,65.00
2017-11-08T03:03:15.735Z,65.00
2017-11-08T03:05:43.636Z,65.00
2017-11-08T03:08:11.631Z,65.00
2017-11-08T03:10:39.536Z,65.10
2017-11-08T03:13:07.372Z,65.10
2017-11-08T03:15:35.307Z,65.10
2017-11-08T03:18:03.241Z,65.10
2017-11-08T03:20:31.196Z,65.10
2017-11-08T03:23:00.369Z,65.00
2017-11-08T03:25:28.308Z,65.10
2017-11-08T03:27:56.143Z,65.20
2017-11-08T03:30:24.025Z,65.10
2017-11-08T03:32:51.956Z,65.20
2017-11-08T03:35:20.593Z,65.20
2017-11-08T03:37:48.507Z,65.20
2017-11-08T03:40:17.159Z,65.20
2017-11-08T03:42:45.065Z,65.20
2017-11-08T03:45:13.750Z,65.20
2017-11-08T03:47:42.370Z,65.10
2017-11-08T03:50:10.349Z,65.10
2017-11-08T03:52:38.243Z,65.10
2017-11-08T03:55:06.130Z,65.10
2017-11-08T03:57:34.064Z,65.10
2017-11-08T04:00:01.951Z,65.00
2017-11-08T04:02:29.792Z,65.00
2017-11-08T04:04:57.768Z,65.00
2017-11-08T04:07:25.971Z,65.00
2017-11-08T04:09:54.679Z,65.00
2017-11-08T04:12:23.286Z,65.00
2017-11-08T04:14:51.180Z,65.00
2017-11-08T04:17:19.169Z,65.00
2017-11-08T04:19:47.159Z,65.00
2017-11-08T04:22:15.816Z,65.10
2017-11-08T04:24:43.756Z,65.00
2017-11-08T04:27:11.704Z,65.00
2017-11-08T04:29:39.662Z,65.10
2017-11-08T04:32:08.360Z,65.00
2017-11-08T04:34:36.300Z,65.10
2017-11-08T04:37:04.185Z,65.10
2017-11-08T04:39:32.803Z,65.10
2017-11-08T04:42:00.671Z,65.00
2017-11-08T04:44:28.621Z,65.00
2017-11-08T04:46:56.544Z,65.10
2017-11-08T04:49:24.423Z,65.00
2017-11-08T04:51:52.320Z,65.00
2017-11-08T04:54:20.309Z,64.90
2017-11-08T04:56:48.210Z,65.10
2017-11-08T04:59:16.139Z,65.00
2017-11-08T05:01:44.036Z,65.00
2017-11-08T05:04:11.929Z,65.00
2017-11-08T05:06:40.639Z,64.90
2017-11-08T05:09:08.533Z,64.90
2017-11-08T05:11:36.383Z,64.90
2017-11-08T05:14:04.215Z,64.90
2017-11-08T05:16:32.179Z,64.90
2017-11-08T05:19:00.127Z,64.90
2017-11-08T05:21:27.977Z,65.00
2017-11-08T05:23:55.849Z,65.00
2017-11-08T05:26:23.785Z,65.00
2017-11-08T05:28:51.724Z,65.00
2017-11-08T05:31:19.695Z,65.00
2017-11-08T05:33:48.328Z,65.10
2017-11-08T05:36:16.209Z,65.10
2017-11-08T05:38:44.155Z,65.00
2017-11-08T05:41:12.088Z,65.00
2017-11-08T05:43:40.737Z,65.10
2017-11-08T05:46:08.615Z,65.00
2017-11-08T05:48:36.486Z,65.00
2017-11-08T05:51:04.395Z,65.00
2017-11-08T05:53:32.416Z,65.00
2017-11-08T05:56:00.290Z,65.10
2017-11-08T05:58:28.186Z,65.10
2017-11-08T06:00:56.896Z,65.20
2017-11-08T06:03:24.780Z,65.20
2017-11-08T06:05:52.707Z,65.20
2017-11-08T06:08:21.393Z,65.20
2017-11-08T06:10:50.037Z,65.20
2017-11-08T06:13:17.884Z,65.20
2017-11-08T06:15:45.743Z,65.20
2017-11-08T06:18:13.680Z,65.30
2017-11-08T06:20:42.372Z,65.20
2017-11-08T06:23:11.060Z,65.20
2017-11-08T06:25:39.674Z,65.20
2017-11-08T06:28:07.526Z,65.20
2017-11-08T06:30:36.266Z,65.30
2017-11-08T06:33:04.485Z,65.40
2017-11-08T06:35:32.984Z,65.50
2017-11-08T06:38:01.718Z,65.40
2017-11-08T06:40:29.619Z,65.40
2017-11-08T06:42:57.526Z,65.40
2017-11-08T06:45:25.468Z,65.40
2017-11-08T06:47:53.352Z,65.40
2017-11-08T06:50:21.279Z,65.50
2017-11-08T06:52:50.070Z,65.70
2017-11-08T06:55:18.740Z,65.70
2017-11-08T06:57:46.679Z,65.70
2017-11-08T07:00:14.596Z,65.70
2017-11-08T07:02:43.255Z,65.60
2017-11-08T07:05:11.167Z,65.60
2017-11-08T07:07:39.389Z,65.70
2017-11-08T07:10:07.266Z,65.60
2017-11-08T07:12:35.149Z,65.60
2017-11-08T07:15:03.905Z,65.70
2017-11-08T07:17:31.791Z,65.70
2017-11-08T07:19:59.743Z,65.60
2017-11-08T07:22:28.242Z,65.60
2017-11-08T07:24:57.071Z,65.50
2017-11-08T07:27:25.744Z,65.70
2017-11-08T07:29:53.727Z,65.60
2017-11-08T07:32:21.652Z,65.50
2017-11-08T07:34:49.492Z,65.40
2017-11-08T07:37:17.323Z,65.40
2017-11-08T07:39:45.292Z,65.50
2017-11-08T07:42:13.791Z,65.50
2017-11-08T07:44:41.665Z,65.60
2017-11-08T07:47:09.524Z,65.60
2017-11-08T07:49:37.420Z,65.60
2017-11-08T07:52:07.202Z,65.60
2017-11-08T07:54:35.094Z,65.70
2017-11-08T07:57:02.948Z,65.60
2017-11-08T07:59:36.508Z,65.50
2017-11-08T08:02:05.120Z,65.50
2017-11-08T08:04:32.977Z,65.50
2017-11-08T08:07:00.838Z,65.50
2017-11-08T08:09:34.268Z,65.50
2017-11-08T08:12:02.198Z,65.50
2017-11-08T08:14:31.325Z,66.10
2017-11-08T08:16:59.197Z,65.40
2017-11-08T08:19:27.302Z,65.50
2017-11-08T08:21:55.157Z,65.40
2017-11-08T08:24:23.885Z,65.50
2017-11-08T08:26:53.048Z,65.50
2017-11-08T08:29:21.941Z,65.50
2017-11-08T08:31:50.686Z,65.50
2017-11-08T08:34:19.840Z,65.50
2017-11-08T08:36:48.310Z,65.40
2017-11-08T08:39:16.796Z,65.50
2017-11-08T08:41:44.749Z,65.50
2017-11-08T08:44:12.700Z,65.40
2017-11-08T08:46:40.595Z,65.50
2017-11-08T08:49:08.469Z,65.60
2017-11-08T08:51:36.359Z,65.60
2017-11-08T08:54:05.107Z,65.50
2017-11-08T08:56:33.007Z,65.50
2017-11-08T08:59:01.660Z,65.30
2017-11-08T09:01:29.531Z,65.30
2017-11-08T09:03:57.407Z,65.40
2017-11-08T09:06:25.610Z,65.40
2017-11-08T09:08:53.505Z,65.20
2017-11-08T09:11:21.449Z,65.30
2017-11-08T09:13:50.169Z,65.10
2017-11-08T09:16:18.101Z,65.10
2017-11-08T09:18:52.563Z,65.10
2017-11-08T09:21:20.630Z,65.10
2017-11-08T09:23:48.634Z,65.10
2017-11-08T09:26:16.645Z,65.10
2017-11-08T09:28:44.605Z,65.00
2017-11-08T09:31:18.275Z,65.00
2017-11-08T09:33:46.405Z,65.00
2017-11-08T09:36:15.171Z,64.80
2017-11-08T09:38:43.071Z,64.80
2017-11-08T09:41:11.056Z,64.70
2017-11-08T09:43:38.929Z,64.60
2017-11-08T09:46:06.868Z,64.60
2017-11-08T09:48:34.817Z,64.60
2017-11-08T09:51:02.808Z,64.40
2017-11-08T09:53:30.777Z,64.40
2017-11-08T09:55:58.757Z,64.20
2017-11-08T09:58:26.696Z,64.20
2017-11-08T10:00:57.455Z,64.20
2017-11-08T10:03:25.404Z,64.00
2017-11-08T10:05:53.265Z,64.00
2017-11-08T10:08:21.196Z,63.90
2017-11-08T10:10:49.177Z,63.70
2017-11-08T10:13:18.771Z,63.50
2017-11-08T10:15:47.557Z,63.50
2017-11-08T10:18:15.709Z,63.50
2017-11-08T10:20:44.569Z,63.60
2017-11-08T10:23:13.009Z,63.40
2017-11-08T10:25:42.002Z,63.50
2017-11-08T10:28:09.888Z,63.60
2017-11-08T10:30:38.563Z,63.50
2017-11-08T10:33:06.457Z,63.50
2017-11-08T10:35:35.229Z,63.60
2017-11-08T10:38:04.008Z,63.50
2017-11-08T10:40:32.759Z,63.40
2017-11-08T10:43:00.710Z,63.30
2017-11-08T10:45:29.045Z,63.40
2017-11-08T10:47:57.487Z,63.60
2017-11-08T10:50:25.989Z,63.60
2017-11-08T10:52:55.498Z,63.50
2017-11-08T10:55:23.500Z,63.50
2017-11-08T10:57:52.103Z,63.50
2017-11-08T11:00:25.651Z,63.40
2017-11-08T11:02:58.510Z,63.30
2017-11-08T11:05:26.517Z,63.10
2017-11-08T11:07:54.511Z,63.00
2017-11-08T11:10:22.559Z,62.80
2017-11-08T11:12:50.491Z,62.60
2017-11-08T11:15:18.481Z,62.40
2017-11-08T11:17:49.350Z,62.20
2017-11-08T11:20:19.368Z,62.10
2017-11-08T11:22:47.785Z,62.00
2017-11-08T11:25:17.204Z,62.10
2017-11-08T11:27:45.207Z,62.70
2017-11-08T11:30:13.196Z,61.70
2017-11-08T11:32:44.007Z,61.50
2017-11-08T11:35:12.072Z,61.30
2017-11-08T11:37:45.678Z,60.80
2017-11-08T11:40:14.972Z,60.30
2017-11-08T11:42:43.025Z,60.10
2017-11-08T11:45:11.803Z,60.10
2017-11-08T11:47:39.912Z,60.00
2017-11-08T11:50:08.732Z,59.80
2017-11-08T11:52:36.763Z,59.80
2017-11-08T11:55:05.593Z,59.70
2017-11-08T11:57:33.603Z,59.70
2017-11-08T12:00:03.517Z,59.70
2017-11-08T12:02:31.576Z,59.60
2017-11-08T12:04:59.699Z,59.50
2017-11-08T12:07:28.475Z,59.20
2017-11-08T12:09:57.238Z,59.30
2017-11-08T12:12:26.283Z,59.20
2017-11-08T12:14:54.305Z,59.30
2017-11-08T12:17:22.261Z,59.10
2017-11-08T12:19:51.068Z,58.80
2017-11-08T12:22:19.549Z,59.30
2017-11-08T12:24:47.633Z,58.80
2017-11-08T12:27:16.508Z,59.00
2017-11-08T12:29:45.346Z,58.90
2017-11-08T12:32:13.415Z,58.90
2017-11-08T12:34:41.779Z,59.00
2017-11-08T12:37:10.123Z,58.90
2017-11-08T12:39:38.644Z,58.70
2017-11-08T12:42:12.800Z,58.50
2017-11-08T12:44:46.445Z,58.20
2017-11-08T12:47:15.210Z,58.10
2017-11-08T12:49:43.239Z,58.10
2017-11-08T12:52:11.865Z,58.10
2017-11-08T12:54:40.278Z,58.00
2017-11-08T12:57:10.053Z,57.80
2017-11-08T12:59:39.319Z,57.60
2017-11-08T13:02:08.050Z,57.40
2017-11-08T13:04:36.599Z,57.40
2017-11-08T13:07:11.165Z,57.10
2017-11-08T13:09:39.376Z,57.50
2017-11-08T13:12:10.507Z,57.50
2017-11-08T13:14:39.763Z,57.40
2017-11-08T13:17:08.111Z,57.30
2017-11-08T13:19:36.477Z,57.20
2017-11-08T13:22:05.643Z,57.20
2017-11-08T13:24:34.042Z,57.00
2017-11-08T13:27:03.203Z,57.10
2017-11-08T13:29:32.309Z,57.10
2017-11-08T13:32:00.451Z,57.20
2017-11-08T13:34:28.656Z,57.20
2017-11-08T13:36:56.895Z,57.10
2017-11-08T13:39:25.127Z,57.00
2017-11-08T13:41:54.518Z,56.90
2017-11-08T13:44:22.835Z,56.80
2017-11-08T13:46:51.655Z,56.90
2017-11-08T13:49:19.969Z,57.10
2017-11-08T13:51:48.260Z,57.00
2017-11-08T13:54:17.360Z,56.80
2017-11-08T13:56:46.376Z,56.70
2017-11-08T13:59:14.571Z,56.70
2017-11-08T14:01:43.058Z,56.80
2017-11-08T14:04:11.358Z,56.80
2017-11-08T14:06:39.630Z,56.80
2017-11-08T14:09:07.842Z,56.60
2017-11-08T14:11:36.801Z,56.60
2017-11-08T14:14:04.963Z,56.60
2017-11-08T14:16:34.397Z,56.60
2017-11-08T14:19:03.064Z,56.50
2017-11-08T14:21:31.361Z,56.50
2017-11-08T14:24:00.763Z,56.40
2017-11-08T14:26:28.915Z,56.30
2017-11-08T14:28:57.242Z,56.30
2017-11-08T14:31:25.244Z,56.50
2017-11-08T14:33:53.131Z,56.40
2017-11-08T14:36:21.069Z,56.30
2017-11-08T14:38:49.094Z,56.30
2017-11-08T14:41:17.645Z,56.40
2017-11-08T14:43:45.511Z,56.40
2017-11-08T14:46:14.201Z,56.30
2017-11-08T14:48:43.033Z,56.40
2017-11-08T14:51:11.857Z,56.30
2017-11-08T14:53:41.658Z,56.30
2017-11-08T14:56:09.586Z,56.10
2017-11-08T14:58:37.558Z,56.20
2017-11-08T15:01:05.437Z,56.10
2017-11-08T15:03:34.120Z,55.90
2017-11-08T15:06:02.818Z,55.90
2017-11-08T15:08:31.521Z,55.80
2017-11-08T15:10:59.567Z,55.80
2017-11-08T15:13:28.535Z,55.80
2017-11-08T15:15:56.404Z,55.80
2017-11-08T15:18:24.241Z,55.80
2017-11-08T15:20:52.736Z,55.60
2017-11-08T15:23:21.414Z,55.60
2017-11-08T15:25:49.258Z,55.60
2017-11-08T15:28:17.252Z,55.50
2017-11-08T15:30:46.177Z,55.40
2017-11-08T15:33:14.041Z,55.40
2017-11-08T15:35:42.011Z,55.40
2017-11-08T15:38:09.907Z,55.60
2017-11-08T15:40:37.776Z,55.80
2017-11-08T15:43:06.710Z,56.00
2017-11-08T15:45:35.130Z,56.00
2017-11-08T15:48:04.241Z,56.20
2017-11-08T15:50:32.887Z,56.20
2017-11-08T15:53:00.825Z,56.10
2017-11-08T15:55:28.841Z,56.20
2017-11-08T15:57:57.474Z,56.30
2017-11-08T16:00:25.423Z,56.30
2017-11-08T16:02:53.293Z,56.40
2017-11-08T16:05:21.191Z,56.50
2017-11-08T16:07:49.140Z,56.50
2017-11-08T16:10:17.127Z,56.60
2017-11-08T16:12:45.092Z,56.70
2017-11-08T16:15:13.224Z,56.80
2017-11-08T16:17:41.845Z,56.90
2017-11-08T16:20:15.184Z,56.90
2017-11-08T16:22:43.076Z,57.00
2017-11-08T16:25:11.724Z,57.10
2017-11-08T16:27:39.595Z,57.10
2017-11-08T16:30:07.544Z,57.10
2017-11-08T16:32:36.260Z,57.10
2017-11-08T16:35:04.321Z,57.20
2017-11-08T16:37:32.162Z,57.20
2017-11-08T16:40:00.116Z,57.20
2017-11-08T16:42:27.950Z,57.20
2017-11-08T16:44:57.474Z,57.10
2017-11-08T16:47:25.342Z,57.10
2017-11-08T16:49:53.201Z,57.00
2017-11-08T16:52:21.906Z,57.10
2017-11-08T16:54:49.747Z,57.10
2017-11-08T16:57:18.422Z,57.10
2017-11-08T16:59:47.068Z,57.20
2017-11-08T17:02:14.925Z,57.10
2017-11-08T17:04:42.809Z,57.70
2017-11-08T17:07:10.741Z,57.20
2017-11-08T17:09:38.710Z,57.20
2017-11-08T17:12:06.657Z,57.30
2017-11-08T17:14:35.361Z,57.30
2017-11-08T17:17:03.480Z,57.40
2017-11-08T17:19:31.500Z,57.30
2017-11-08T17:21:59.373Z,57.30
2017-11-08T17:24:27.352Z,57.40
2017-11-08T17:26:55.359Z,57.40
2017-11-08T17:29:23.359Z,57.40
2017-11-08T17:31:52.050Z,57.50
2017-11-08T17:34:20.699Z,57.50
2017-11-08T17:36:48.570Z,57.50
2017-11-08T17:39:16.469Z,57.50
2017-11-08T17:41:45.097Z,57.70
2017-11-08T17:44:12.953Z,57.70
2017-11-08T17:46:41.112Z,57.60
2017-11-08T17:49:08.954Z,57.70
2017-11-08T17:51:37.622Z,57.80
2017-11-08T17:54:05.491Z,57.70
2017-11-08T17:56:33.426Z,57.80
2017-11-08T17:59:03.296Z,57.90
2017-11-08T18:01:32.045Z,58.10
2017-11-08T18:03:59.900Z,58.10
2017-11-08T18:06:27.765Z,58.10
2017-11-08T18:08:59.032Z,58.20
2017-11-08T18:11:27.107Z,58.30
2017-11-08T18:13:54.962Z,58.40
2017-11-08T18:16:22.925Z,58.50
2017-11-08T18:18:50.911Z,58.50
2017-11-08T18:21:18.776Z,58.60
2017-11-08T18:23:47.035Z,58.70
2017-11-08T18:26:15.157Z,58.80
2017-11-08T18:28:43.778Z,58.80
2017-11-08T18:31:11.671Z,58.70
2017-11-08T18:33:39.542Z,58.90
2017-11-08T18:36:07.416Z,58.90
2017-11-08T18:38:35.280Z,58.90
2017-11-08T18:41:03.248Z,59.00
2017-11-08T18:43:31.109Z,59.10
2017-11-08T18:45:58.948Z,59.10
2017-11-08T18:48:27.068Z,59.20
2017-11-08T18:50:55.009Z,59.20
2017-11-08T18:53:23.159Z,59.30
2017-11-08T18:55:51.050Z,59.30
2017-11-08T18:58:18.986Z,59.30
2017-11-08T19:00:47.029Z,59.40
2017-11-08T19:03:15.688Z,59.50
2017-11-08T19:05:43.558Z,59.50
2017-11-08T19:08:11.437Z,59.50
2017-11-08T19:10:39.319Z,59.50
2017-11-08T19:13:08.028Z,60.20
2017-11-08T19:15:35.923Z,59.60
2017-11-08T19:18:03.881Z,59.50
2017-11-08T19:20:31.834Z,59.50
2017-11-08T19:23:00.236Z,59.60
2017-11-08T19:25:28.856Z,59.60
2017-11-08T19:27:56.799Z,59.60
2017-11-08T19:30:24.713Z,59.60
2017-11-08T19:32:53.387Z,59.60
2017-11-08T19:35:21.332Z,59.60
2017-11-08T19:37:49.216Z,59.70
2017-11-08T19:40:17.120Z,59.70
2017-11-08T19:42:45.068Z,59.80
2017-11-08T19:45:13.732Z,60.00
2017-11-08T19:47:41.585Z,59.90
2017-11-08T19:50:09.517Z,60.00
2017-11-08T19:52:37.482Z,60.00
2017-11-08T19:55:05.405Z,60.00
2017-11-08T19:57:33.305Z,60.30
2017-11-08T20:00:02.018Z,60.30
2017-11-08T20:02:29.896Z,60.30
2017-11-08T20:04:57.761Z,60.40
2017-11-08T20:07:25.690Z,60.50
2017-11-08T20:09:54.401Z,60.60
2017-11-08T20:12:22.365Z,60.60
2017-11-08T20:14:50.221Z,60.60
2017-11-08T20:17:19.801Z,60.70
2017-11-08T20:19:49.061Z,60.70
2017-11-08T20:22:17.860Z,60.80
2017-11-08T20:24:46.649Z,60.90
2017-11-08T20:27:15.450Z,60.90
2017-11-08T20:29:44.257Z,61.00
2017-11-08T20:32:12.403Z,61.00
2017-11-08T20:34:41.219Z,61.70
2017-11-08T20:37:09.397Z,61.10
2017-11-08T20:39:37.916Z,61.20
2017-11-08T20:42:06.680Z,61.20
2017-11-08T20:44:35.895Z,61.40
2017-11-08T20:47:04.338Z,61.20
2017-11-08T20:49:33.128Z,61.30
2017-11-08T20:52:01.899Z,61.40
2017-11-08T20:54:30.287Z,61.50
2017-11-08T20:56:59.601Z,61.50
2017-11-08T20:59:27.492Z,61.50
2017-11-08T21:01:56.532Z,61.60
2017-11-08T21:04:25.053Z,61.50
2017-11-08T21:06:53.924Z,61.60
2017-11-08T21:09:21.787Z,61.60
2017-11-08T21:11:50.134Z,61.70
2017-11-08T21:14:18.152Z,61.70
2017-11-08T21:16:46.009Z,61.70
2017-11-08T21:19:13.897Z,61.80
2017-11-08T21:21:42.568Z,61.80
2017-11-08T21:24:11.269Z,61.90
2017-11-08T21:26:39.545Z,61.90
2017-11-08T21:29:08.016Z,61.90
2017-11-08T21:31:36.788Z,61.90
2017-11-08T21:34:04.973Z,61.90
2017-11-08T21:36:34.020Z,61.90
2017-11-08T21:39:02.710Z,61.90
2017-11-08T21:41:31.496Z,61.90
2017-11-08T21:44:00.166Z,62.00
2017-11-08T21:46:29.102Z,61.90
2017-11-08T21:48:57.262Z,61.90
2017-11-08T21:51:25.509Z,62.00
2017-11-08T21:53:53.367Z,62.00
2017-11-08T21:56:22.876Z,62.10
2017-11-08T21:58:51.098Z,62.00
2017-11-08T22:01:18.981Z,62.00
2017-11-08T22:03:47.685Z,62.00
2017-11-08T22:06:18.052Z,62.10
2017-11-08T22:08:45.980Z,62.20
2017-11-08T22:11:15.249Z,62.20
2017-11-08T22:13:43.125Z,62.10
2017-11-08T22:16:11.014Z,62.00
2017-11-08T22:18:41.018Z,62.10
2017-11-08T22:21:09.289Z,62.00
2017-11-08T22:23:37.687Z,62.00
2017-11-08T22:26:06.457Z,62.00
2017-11-08T22:28:35.090Z,62.10
2017-11-08T22:31:03.053Z,62.00
2017-11-08T22:33:31.093Z,61.90
2017-11-08T22:35:58.960Z,62.70
2017-11-08T22:38:26.870Z,61.90
2017-11-08T22:40:54.821Z,61.90
2017-11-08T22:43:22.759Z,61.90
2017-11-08T22:45:50.674Z,61.90
2017-11-08T22:48:18.560Z,61.90
2017-11-08T22:50:46.447Z,61.90
2017-11-08T22:53:15.186Z,62.00
2017-11-08T22:55:43.780Z,62.00
2017-11-08T22:58:11.934Z,62.10
2017-11-08T23:00:40.627Z,62.20
2017-11-08T23:03:08.538Z,62.30
2017-11-08T23:05:36.500Z,62.30
2017-11-08T23:08:04.386Z,62.30
2017-11-08T23:10:32.275Z,62.30
2017-11-08T23:13:01.518Z,62.50
2017-11-08T23:15:29.934Z,62.50
2017-11-08T23:17:58.213Z,62.50
2017-11-08T23:20:26.901Z,63.20
2017-11-08T23:22:54.757Z,62.50
2017-11-08T23:25:22.602Z,62.50
2017-11-08T23:27:50.628Z,62.60
2017-11-08T23:30:19.492Z,62.60
2017-11-08T23:32:47.515Z,62.60
2017-11-08T23:35:16.404Z,62.60
2017-11-08T23:37:44.412Z,62.70
2017-11-08T23:40:13.039Z,62.70
2017-11-08T23:42:41.781Z,62.70
2017-11-08T23:45:09.691Z,62.60
2017-11-08T23:47:38.342Z,62.70
2017-11-08T23:50:06.235Z,62.80
2017-11-08T23:52:35.720Z,62.80
2017-11-08T23:55:04.453Z,63.50
2017-11-08T23:57:33.198Z,62.80
